sensor_id;sensor_type;location;lat;lon;timestamp;P1;durP1;ratioP1;P2;durP2;ratioP2
57337;SDS011;43173;50.980;18.204;2024-03-07T00:01:35;49.70;;;21.40;;
57337;SDS011;43173;50.980;18.204;2024-03-07T00:04:02;44.80;;;20.80;;
57337;SDS011;43173;50.980;18.204;2024-03-07T00:06:28;47.80;;;21.80;;
57337;SDS011;43173;50.980;18.204;2024-03-07T00:08:53;51.80;;;24.10;;
57337;SDS011;43173;50.980;18.204;2024-03-07T00:11:20;46.80;;;21.90;;
57337;SDS011;43173;50.980;18.204;2024-03-07T00:13:45;51.20;;;23.00;;
57337;SDS011;43173;50.980;18.204;2024-03-07T00:16:11;51.00;;;23.90;;
57337;SDS011;43173;50.980;18.204;2024-03-07T00:18:36;53.00;;;26.50;;
57337;SDS011;43173;50.980;18.204;2024-03-07T00:21:02;48.30;;;24.20;;
57337;SDS011;43173;50.980;18.204;2024-03-07T00:23:28;45.50;;;23.20;;
57337;SDS011;43173;50.980;18.204;2024-03-07T00:25:54;48.00;;;22.90;;
57337;SDS011;43173;50.980;18.204;2024-03-07T00:28:20;42.80;;;20.90;;
57337;SDS011;43173;50.980;18.204;2024-03-07T00:30:45;42.10;;;20.90;;
57337;SDS011;43173;50.980;18.204;2024-03-07T00:33:11;42.10;;;21.70;;
57337;SDS011;43173;50.980;18.204;2024-03-07T00:35:37;35.80;;;20.60;;
57337;SDS011;43173;50.980;18.204;2024-03-07T00:38:03;42.00;;;22.10;;
57337;SDS011;43173;50.980;18.204;2024-03-07T00:40:29;48.80;;;23.60;;
57337;SDS011;43173;50.980;18.204;2024-03-07T00:42:55;50.70;;;24.40;;
57337;SDS011;43173;50.980;18.204;2024-03-07T00:45:20;50.00;;;23.90;;
57337;SDS011;43173;50.980;18.204;2024-03-07T00:47:46;50.90;;;23.10;;
57337;SDS011;43173;50.980;18.204;2024-03-07T00:50:13;44.90;;;21.70;;
57337;SDS011;43173;50.980;18.204;2024-03-07T00:52:39;44.90;;;20.90;;
57337;SDS011;43173;50.980;18.204;2024-03-07T00:55:05;43.40;;;21.70;;
57337;SDS011;43173;50.980;18.204;2024-03-07T00:57:34;37.90;;;18.10;;
57337;SDS011;43173;50.980;18.204;2024-03-07T01:00:00;36.90;;;18.50;;
57337;SDS011;43173;50.980;18.204;2024-03-07T01:02:26;37.10;;;17.50;;
57337;SDS011;43173;50.980;18.204;2024-03-07T01:04:51;37.00;;;18.00;;
57337;SDS011;43173;50.980;18.204;2024-03-07T01:07:19;32.40;;;17.60;;
57337;SDS011;43173;50.980;18.204;2024-03-07T01:09:46;42.20;;;19.40;;
57337;SDS011;43173;50.980;18.204;2024-03-07T01:12:12;39.50;;;19.80;;
57337;SDS011;43173;50.980;18.204;2024-03-07T01:14:37;47.50;;;20.70;;
57337;SDS011;43173;50.980;18.204;2024-03-07T01:17:03;39.10;;;19.40;;
57337;SDS011;43173;50.980;18.204;2024-03-07T01:19:28;39.40;;;19.30;;
57337;SDS011;43173;50.980;18.204;2024-03-07T01:21:54;39.30;;;18.20;;
57337;SDS011;43173;50.980;18.204;2024-03-07T01:24:19;37.40;;;18.60;;
57337;SDS011;43173;50.980;18.204;2024-03-07T01:26:45;38.80;;;18.20;;
57337;SDS011;43173;50.980;18.204;2024-03-07T01:29:11;35.00;;;18.30;;
57337;SDS011;43173;50.980;18.204;2024-03-07T01:31:37;40.30;;;18.90;;
57337;SDS011;43173;50.980;18.204;2024-03-07T01:34:02;39.90;;;19.10;;
57337;SDS011;43173;50.980;18.204;2024-03-07T01:36:28;37.90;;;19.30;;
57337;SDS011;43173;50.980;18.204;2024-03-07T01:38:53;41.10;;;19.70;;
57337;SDS011;43173;50.980;18.204;2024-03-07T01:41:19;39.40;;;19.10;;
57337;SDS011;43173;50.980;18.204;2024-03-07T01:43:44;40.30;;;19.00;;
57337;SDS011;43173;50.980;18.204;2024-03-07T01:46:10;36.80;;;18.80;;
57337;SDS011;43173;50.980;18.204;2024-03-07T01:48:35;36.80;;;18.20;;
57337;SDS011;43173;50.980;18.204;2024-03-07T01:51:02;36.20;;;18.80;;
57337;SDS011;43173;50.980;18.204;2024-03-07T01:53:31;42.00;;;18.40;;
57337;SDS011;43173;50.980;18.204;2024-03-07T01:55:58;46.10;;;21.10;;
57337;SDS011;43173;50.980;18.204;2024-03-07T01:58:24;42.00;;;21.30;;
57337;SDS011;43173;50.980;18.204;2024-03-07T02:00:50;49.60;;;22.60;;
57337;SDS011;43173;50.980;18.204;2024-03-07T02:03:16;43.80;;;22.70;;
57337;SDS011;43173;50.980;18.204;2024-03-07T02:05:42;56.60;;;25.50;;
57337;SDS011;43173;50.980;18.204;2024-03-07T02:08:08;54.30;;;25.20;;
57337;SDS011;43173;50.980;18.204;2024-03-07T02:10:33;59.10;;;25.00;;
57337;SDS011;43173;50.980;18.204;2024-03-07T02:12:59;56.00;;;26.40;;
57337;SDS011;43173;50.980;18.204;2024-03-07T02:15:26;55.40;;;25.90;;
57337;SDS011;43173;50.980;18.204;2024-03-07T02:17:52;55.90;;;23.60;;
57337;SDS011;43173;50.980;18.204;2024-03-07T02:20:17;50.70;;;23.30;;
57337;SDS011;43173;50.980;18.204;2024-03-07T02:22:43;47.30;;;22.00;;
57337;SDS011;43173;50.980;18.204;2024-03-07T02:25:08;44.80;;;21.60;;
57337;SDS011;43173;50.980;18.204;2024-03-07T02:27:37;46.20;;;21.10;;
57337;SDS011;43173;50.980;18.204;2024-03-07T02:30:04;44.70;;;21.10;;
57337;SDS011;43173;50.980;18.204;2024-03-07T02:32:34;43.90;;;19.80;;
57337;SDS011;43173;50.980;18.204;2024-03-07T02:35:00;43.50;;;21.60;;
57337;SDS011;43173;50.980;18.204;2024-03-07T02:37:25;50.80;;;22.80;;
57337;SDS011;43173;50.980;18.204;2024-03-07T02:39:51;53.60;;;23.30;;
57337;SDS011;43173;50.980;18.204;2024-03-07T02:42:16;49.90;;;24.20;;
57337;SDS011;43173;50.980;18.204;2024-03-07T02:44:42;45.40;;;23.40;;
57337;SDS011;43173;50.980;18.204;2024-03-07T02:47:07;50.10;;;22.40;;
57337;SDS011;43173;50.980;18.204;2024-03-07T02:49:33;46.80;;;24.60;;
57337;SDS011;43173;50.980;18.204;2024-03-07T02:51:59;56.60;;;26.00;;
57337;SDS011;43173;50.980;18.204;2024-03-07T02:54:24;55.90;;;25.10;;
57337;SDS011;43173;50.980;18.204;2024-03-07T02:56:49;47.00;;;24.20;;
57337;SDS011;43173;50.980;18.204;2024-03-07T02:59:15;50.00;;;23.20;;
57337;SDS011;43173;50.980;18.204;2024-03-07T03:01:42;48.10;;;23.00;;
57337;SDS011;43173;50.980;18.204;2024-03-07T03:04:07;44.20;;;21.70;;
57337;SDS011;43173;50.980;18.204;2024-03-07T03:06:33;50.20;;;22.70;;
57337;SDS011;43173;50.980;18.204;2024-03-07T03:08:59;36.70;;;21.60;;
57337;SDS011;43173;50.980;18.204;2024-03-07T03:11:24;42.80;;;21.10;;
57337;SDS011;43173;50.980;18.204;2024-03-07T03:13:51;46.20;;;21.80;;
57337;SDS011;43173;50.980;18.204;2024-03-07T03:16:17;43.20;;;22.80;;
57337;SDS011;43173;50.980;18.204;2024-03-07T03:18:42;47.50;;;23.80;;
57337;SDS011;43173;50.980;18.204;2024-03-07T03:21:08;44.00;;;20.60;;
57337;SDS011;43173;50.980;18.204;2024-03-07T03:23:34;39.00;;;20.20;;
57337;SDS011;43173;50.980;18.204;2024-03-07T03:26:00;40.30;;;20.60;;
57337;SDS011;43173;50.980;18.204;2024-03-07T03:28:25;42.60;;;20.70;;
57337;SDS011;43173;50.980;18.204;2024-03-07T03:30:51;45.00;;;21.70;;
57337;SDS011;43173;50.980;18.204;2024-03-07T03:33:17;38.00;;;20.30;;
57337;SDS011;43173;50.980;18.204;2024-03-07T03:35:42;40.80;;;21.70;;
57337;SDS011;43173;50.980;18.204;2024-03-07T03:38:08;39.60;;;18.70;;
57337;SDS011;43173;50.980;18.204;2024-03-07T03:40:34;42.20;;;19.90;;
57337;SDS011;43173;50.980;18.204;2024-03-07T03:43:00;38.10;;;20.20;;
57337;SDS011;43173;50.980;18.204;2024-03-07T03:45:26;39.00;;;19.40;;
57337;SDS011;43173;50.980;18.204;2024-03-07T03:47:52;38.90;;;20.30;;
57337;SDS011;43173;50.980;18.204;2024-03-07T03:50:18;38.00;;;19.30;;
57337;SDS011;43173;50.980;18.204;2024-03-07T03:52:43;36.00;;;16.50;;
57337;SDS011;43173;50.980;18.204;2024-03-07T03:55:09;38.30;;;19.20;;
57337;SDS011;43173;50.980;18.204;2024-03-07T03:57:37;41.30;;;20.30;;
57337;SDS011;43173;50.980;18.204;2024-03-07T04:00:07;37.60;;;18.70;;
57337;SDS011;43173;50.980;18.204;2024-03-07T04:02:42;32.40;;;15.10;;
57337;SDS011;43173;50.980;18.204;2024-03-07T04:05:12;36.60;;;17.80;;
57337;SDS011;43173;50.980;18.204;2024-03-07T04:07:39;33.10;;;16.80;;
57337;SDS011;43173;50.980;18.204;2024-03-07T04:10:05;27.80;;;16.40;;
57337;SDS011;43173;50.980;18.204;2024-03-07T04:12:41;28.60;;;15.50;;
57337;SDS011;43173;50.980;18.204;2024-03-07T04:15:11;32.80;;;15.40;;
57337;SDS011;43173;50.980;18.204;2024-03-07T04:17:37;38.40;;;17.20;;
57337;SDS011;43173;50.980;18.204;2024-03-07T04:20:04;32.40;;;16.00;;
57337;SDS011;43173;50.980;18.204;2024-03-07T04:22:31;28.30;;;16.20;;
57337;SDS011;43173;50.980;18.204;2024-03-07T04:24:58;31.10;;;16.00;;
57337;SDS011;43173;50.980;18.204;2024-03-07T04:27:24;32.30;;;16.30;;
57337;SDS011;43173;50.980;18.204;2024-03-07T04:29:51;29.50;;;16.40;;
57337;SDS011;43173;50.980;18.204;2024-03-07T04:32:17;28.90;;;14.90;;
57337;SDS011;43173;50.980;18.204;2024-03-07T04:34:43;24.60;;;12.50;;
57337;SDS011;43173;50.980;18.204;2024-03-07T04:37:09;24.80;;;12.50;;
57337;SDS011;43173;50.980;18.204;2024-03-07T04:39:35;29.60;;;14.50;;
57337;SDS011;43173;50.980;18.204;2024-03-07T04:42:01;30.10;;;15.60;;
57337;SDS011;43173;50.980;18.204;2024-03-07T04:44:28;31.40;;;16.40;;
57337;SDS011;43173;50.980;18.204;2024-03-07T04:46:54;25.70;;;14.80;;
57337;SDS011;43173;50.980;18.204;2024-03-07T04:49:24;29.60;;;15.50;;
57337;SDS011;43173;50.980;18.204;2024-03-07T04:51:53;25.90;;;14.70;;
57337;SDS011;43173;50.980;18.204;2024-03-07T04:54:20;29.20;;;16.30;;
57337;SDS011;43173;50.980;18.204;2024-03-07T04:56:46;28.40;;;15.00;;
57337;SDS011;43173;50.980;18.204;2024-03-07T04:59:13;25.80;;;13.40;;
57337;SDS011;43173;50.980;18.204;2024-03-07T05:01:39;27.90;;;13.60;;
57337;SDS011;43173;50.980;18.204;2024-03-07T05:04:05;27.20;;;13.90;;
57337;SDS011;43173;50.980;18.204;2024-03-07T05:06:32;31.60;;;16.00;;
57337;SDS011;43173;50.980;18.204;2024-03-07T05:09:01;28.50;;;14.70;;
57337;SDS011;43173;50.980;18.204;2024-03-07T05:11:28;27.00;;;15.10;;
57337;SDS011;43173;50.980;18.204;2024-03-07T05:13:57;32.90;;;16.30;;
57337;SDS011;43173;50.980;18.204;2024-03-07T05:16:23;27.90;;;15.40;;
57337;SDS011;43173;50.980;18.204;2024-03-07T05:18:51;16.10;;;8.40;;
57337;SDS011;43173;50.980;18.204;2024-03-07T05:21:20;28.60;;;14.90;;
57337;SDS011;43173;50.980;18.204;2024-03-07T05:24:02;28.80;;;15.10;;
57337;SDS011;43173;50.980;18.204;2024-03-07T05:26:29;26.20;;;14.40;;
57337;SDS011;43173;50.980;18.204;2024-03-07T05:29:11;28.00;;;14.30;;
57337;SDS011;43173;50.980;18.204;2024-03-07T05:31:37;27.90;;;14.00;;
57337;SDS011;43173;50.980;18.204;2024-03-07T05:34:06;27.50;;;15.50;;
57337;SDS011;43173;50.980;18.204;2024-03-07T05:36:36;23.60;;;12.60;;
57337;SDS011;43173;50.980;18.204;2024-03-07T05:39:09;30.50;;;15.70;;
57337;SDS011;43173;50.980;18.204;2024-03-07T05:41:36;29.70;;;15.90;;
57337;SDS011;43173;50.980;18.204;2024-03-07T05:44:02;26.50;;;12.50;;
57337;SDS011;43173;50.980;18.204;2024-03-07T05:46:28;30.20;;;15.80;;
57337;SDS011;43173;50.980;18.204;2024-03-07T05:48:53;28.00;;;13.80;;
57337;SDS011;43173;50.980;18.204;2024-03-07T05:51:22;33.90;;;15.50;;
57337;SDS011;43173;50.980;18.204;2024-03-07T05:53:48;38.50;;;17.20;;
57337;SDS011;43173;50.980;18.204;2024-03-07T05:56:15;36.10;;;17.70;;
57337;SDS011;43173;50.980;18.204;2024-03-07T05:58:40;30.70;;;15.20;;
57337;SDS011;43173;50.980;18.204;2024-03-07T06:01:06;34.20;;;17.00;;
57337;SDS011;43173;50.980;18.204;2024-03-07T06:03:33;34.40;;;17.00;;
57337;SDS011;43173;50.980;18.204;2024-03-07T06:05:59;39.50;;;17.90;;
57337;SDS011;43173;50.980;18.204;2024-03-07T06:08:25;38.90;;;17.50;;
57337;SDS011;43173;50.980;18.204;2024-03-07T06:10:50;35.50;;;16.90;;
57337;SDS011;43173;50.980;18.204;2024-03-07T06:13:17;39.40;;;17.40;;
57337;SDS011;43173;50.980;18.204;2024-03-07T06:15:43;35.30;;;15.50;;
57337;SDS011;43173;50.980;18.204;2024-03-07T06:18:09;40.40;;;17.80;;
57337;SDS011;43173;50.980;18.204;2024-03-07T06:20:42;36.90;;;17.00;;
57337;SDS011;43173;50.980;18.204;2024-03-07T06:23:09;32.40;;;14.20;;
57337;SDS011;43173;50.980;18.204;2024-03-07T06:25:37;34.40;;;15.80;;
57337;SDS011;43173;50.980;18.204;2024-03-07T06:28:11;35.20;;;16.50;;
57337;SDS011;43173;50.980;18.204;2024-03-07T06:30:40;35.20;;;16.60;;
57337;SDS011;43173;50.980;18.204;2024-03-07T06:33:08;35.60;;;15.80;;
57337;SDS011;43173;50.980;18.204;2024-03-07T06:35:35;40.30;;;17.10;;
57337;SDS011;43173;50.980;18.204;2024-03-07T06:38:07;36.50;;;16.60;;
57337;SDS011;43173;50.980;18.204;2024-03-07T06:40:33;40.50;;;16.90;;
57337;SDS011;43173;50.980;18.204;2024-03-07T06:43:05;41.10;;;17.20;;
57337;SDS011;43173;50.980;18.204;2024-03-07T06:45:32;30.40;;;14.60;;
57337;SDS011;43173;50.980;18.204;2024-03-07T06:50:40;37.70;;;16.30;;
57337;SDS011;43173;50.980;18.204;2024-03-07T06:53:06;27.40;;;15.00;;
57337;SDS011;43173;50.980;18.204;2024-03-07T06:55:32;38.60;;;17.60;;
57337;SDS011;43173;50.980;18.204;2024-03-07T06:58:01;33.10;;;15.30;;
57337;SDS011;43173;50.980;18.204;2024-03-07T07:00:30;34.50;;;16.60;;
57337;SDS011;43173;50.980;18.204;2024-03-07T07:02:57;35.80;;;16.00;;
57337;SDS011;43173;50.980;18.204;2024-03-07T07:05:22;33.10;;;17.40;;
57337;SDS011;43173;50.980;18.204;2024-03-07T07:07:48;31.60;;;15.70;;
57337;SDS011;43173;50.980;18.204;2024-03-07T07:10:14;38.30;;;15.70;;
57337;SDS011;43173;50.980;18.204;2024-03-07T07:12:44;35.00;;;16.40;;
57337;SDS011;43173;50.980;18.204;2024-03-07T07:15:11;30.50;;;14.90;;
57337;SDS011;43173;50.980;18.204;2024-03-07T07:17:38;29.00;;;16.40;;
57337;SDS011;43173;50.980;18.204;2024-03-07T07:20:04;33.30;;;16.10;;
57337;SDS011;43173;50.980;18.204;2024-03-07T07:25:04;30.40;;;14.00;;
57337;SDS011;43173;50.980;18.204;2024-03-07T07:27:34;32.10;;;16.40;;
57337;SDS011;43173;50.980;18.204;2024-03-07T07:29:59;28.90;;;14.50;;
57337;SDS011;43173;50.980;18.204;2024-03-07T07:46:17;35.20;;;18.10;;
57337;SDS011;43173;50.980;18.204;2024-03-07T07:48:43;30.90;;;17.30;;
57337;SDS011;43173;50.980;18.204;2024-03-07T07:51:09;33.40;;;16.40;;
57337;SDS011;43173;50.980;18.204;2024-03-07T07:53:34;31.30;;;16.10;;
57337;SDS011;43173;50.980;18.204;2024-03-07T07:56:00;33.20;;;16.10;;
57337;SDS011;43173;50.980;18.204;2024-03-07T07:58:25;33.00;;;16.20;;
57337;SDS011;43173;50.980;18.204;2024-03-07T08:00:51;30.40;;;16.50;;
57337;SDS011;43173;50.980;18.204;2024-03-07T08:03:17;34.40;;;17.10;;
57337;SDS011;43173;50.980;18.204;2024-03-07T08:05:43;34.60;;;16.70;;
57337;SDS011;43173;50.980;18.204;2024-03-07T08:08:10;24.80;;;12.80;;
57337;SDS011;43173;50.980;18.204;2024-03-07T08:10:39;26.70;;;14.80;;
57337;SDS011;43173;50.980;18.204;2024-03-07T08:13:06;28.30;;;15.40;;
57337;SDS011;43173;50.980;18.204;2024-03-07T08:15:31;31.10;;;15.10;;
57337;SDS011;43173;50.980;18.204;2024-03-07T08:17:57;26.80;;;15.40;;
57337;SDS011;43173;50.980;18.204;2024-03-07T08:20:24;29.70;;;15.20;;
57337;SDS011;43173;50.980;18.204;2024-03-07T08:22:51;28.80;;;15.60;;
57337;SDS011;43173;50.980;18.204;2024-03-07T08:25:19;27.10;;;14.90;;
57337;SDS011;43173;50.980;18.204;2024-03-07T08:27:47;30.60;;;14.50;;
57337;SDS011;43173;50.980;18.204;2024-03-07T08:30:13;32.80;;;16.30;;
57337;SDS011;43173;50.980;18.204;2024-03-07T08:32:40;27.90;;;14.90;;
57337;SDS011;43173;50.980;18.204;2024-03-07T08:35:06;31.40;;;16.10;;
57337;SDS011;43173;50.980;18.204;2024-03-07T08:37:55;30.10;;;15.70;;
57337;SDS011;43173;50.980;18.204;2024-03-07T08:40:22;33.30;;;16.80;;
57337;SDS011;43173;50.980;18.204;2024-03-07T08:42:53;30.90;;;16.90;;
57337;SDS011;43173;50.980;18.204;2024-03-07T08:45:22;34.00;;;17.00;;
57337;SDS011;43173;50.980;18.204;2024-03-07T08:47:49;34.40;;;15.60;;
57337;SDS011;43173;50.980;18.204;2024-03-07T08:50:16;34.10;;;17.00;;
57337;SDS011;43173;50.980;18.204;2024-03-07T08:52:43;31.90;;;15.70;;
57337;SDS011;43173;50.980;18.204;2024-03-07T08:55:11;27.90;;;14.50;;
57337;SDS011;43173;50.980;18.204;2024-03-07T08:57:39;31.10;;;14.60;;
57337;SDS011;43173;50.980;18.204;2024-03-07T09:00:06;34.30;;;16.70;;
57337;SDS011;43173;50.980;18.204;2024-03-07T09:02:37;33.70;;;16.60;;
57337;SDS011;43173;50.980;18.204;2024-03-07T09:05:04;31.00;;;17.70;;
57337;SDS011;43173;50.980;18.204;2024-03-07T09:07:30;33.50;;;16.10;;
57337;SDS011;43173;50.980;18.204;2024-03-07T09:09:57;32.30;;;16.30;;
57337;SDS011;43173;50.980;18.204;2024-03-07T09:12:22;29.90;;;14.50;;
57337;SDS011;43173;50.980;18.204;2024-03-07T09:14:50;26.50;;;14.30;;
57337;SDS011;43173;50.980;18.204;2024-03-07T09:17:17;31.60;;;15.60;;
57337;SDS011;43173;50.980;18.204;2024-03-07T09:19:43;31.30;;;15.80;;
57337;SDS011;43173;50.980;18.204;2024-03-07T09:22:10;28.90;;;15.70;;
57337;SDS011;43173;50.980;18.204;2024-03-07T09:24:36;31.10;;;16.50;;
57337;SDS011;43173;50.980;18.204;2024-03-07T09:27:03;31.80;;;15.40;;
57337;SDS011;43173;50.980;18.204;2024-03-07T09:29:28;28.90;;;14.50;;
57337;SDS011;43173;50.980;18.204;2024-03-07T09:31:54;29.00;;;15.90;;
57337;SDS011;43173;50.980;18.204;2024-03-07T09:34:20;29.80;;;15.40;;
57337;SDS011;43173;50.980;18.204;2024-03-07T09:36:47;33.00;;;15.40;;
57337;SDS011;43173;50.980;18.204;2024-03-07T09:39:12;29.30;;;15.80;;
57337;SDS011;43173;50.980;18.204;2024-03-07T09:41:38;29.70;;;15.40;;
57337;SDS011;43173;50.980;18.204;2024-03-07T09:44:09;30.60;;;16.50;;
57337;SDS011;43173;50.980;18.204;2024-03-07T09:46:40;28.40;;;15.30;;
57337;SDS011;43173;50.980;18.204;2024-03-07T09:49:05;31.40;;;16.30;;
57337;SDS011;43173;50.980;18.204;2024-03-07T09:51:34;30.70;;;15.30;;
57337;SDS011;43173;50.980;18.204;2024-03-07T09:54:00;26.40;;;14.70;;
57337;SDS011;43173;50.980;18.204;2024-03-07T09:56:27;26.10;;;14.50;;
57337;SDS011;43173;50.980;18.204;2024-03-07T09:58:57;32.70;;;15.70;;
57337;SDS011;43173;50.980;18.204;2024-03-07T10:01:27;32.90;;;15.20;;
57337;SDS011;43173;50.980;18.204;2024-03-07T10:03:57;26.80;;;14.80;;
57337;SDS011;43173;50.980;18.204;2024-03-07T10:06:23;28.50;;;15.10;;
57337;SDS011;43173;50.980;18.204;2024-03-07T10:08:50;29.20;;;15.20;;
57337;SDS011;43173;50.980;18.204;2024-03-07T10:11:16;27.90;;;15.20;;
57337;SDS011;43173;50.980;18.204;2024-03-07T10:13:42;26.70;;;14.20;;
57337;SDS011;43173;50.980;18.204;2024-03-07T10:16:07;26.50;;;15.00;;
57337;SDS011;43173;50.980;18.204;2024-03-07T10:18:41;31.50;;;15.80;;
57337;SDS011;43173;50.980;18.204;2024-03-07T10:21:09;27.30;;;14.70;;
57337;SDS011;43173;50.980;18.204;2024-03-07T10:23:36;27.30;;;14.60;;
57337;SDS011;43173;50.980;18.204;2024-03-07T10:26:03;26.60;;;14.50;;
57337;SDS011;43173;50.980;18.204;2024-03-07T10:28:30;28.20;;;15.00;;
57337;SDS011;43173;50.980;18.204;2024-03-07T10:30:59;26.80;;;15.40;;
57337;SDS011;43173;50.980;18.204;2024-03-07T10:33:28;28.10;;;15.90;;
57337;SDS011;43173;50.980;18.204;2024-03-07T10:35:58;29.90;;;16.60;;
57337;SDS011;43173;50.980;18.204;2024-03-07T10:38:23;28.40;;;15.50;;
57337;SDS011;43173;50.980;18.204;2024-03-07T10:40:54;25.40;;;15.30;;
57337;SDS011;43173;50.980;18.204;2024-03-07T10:43:21;27.20;;;15.10;;
57337;SDS011;43173;50.980;18.204;2024-03-07T10:45:48;31.40;;;16.20;;
57337;SDS011;43173;50.980;18.204;2024-03-07T10:48:20;28.80;;;15.30;;
57337;SDS011;43173;50.980;18.204;2024-03-07T11:04:38;26.60;;;14.90;;
57337;SDS011;43173;50.980;18.204;2024-03-07T11:07:05;28.50;;;15.80;;
57337;SDS011;43173;50.980;18.204;2024-03-07T11:09:31;31.30;;;15.50;;
57337;SDS011;43173;50.980;18.204;2024-03-07T11:11:58;30.20;;;15.30;;
57337;SDS011;43173;50.980;18.204;2024-03-07T11:14:25;25.70;;;14.90;;
57337;SDS011;43173;50.980;18.204;2024-03-07T11:16:51;28.30;;;14.80;;
57337;SDS011;43173;50.980;18.204;2024-03-07T11:19:17;29.10;;;15.80;;
57337;SDS011;43173;50.980;18.204;2024-03-07T11:21:53;25.50;;;14.60;;
57337;SDS011;43173;50.980;18.204;2024-03-07T11:24:24;28.10;;;15.60;;
57337;SDS011;43173;50.980;18.204;2024-03-07T11:26:58;27.90;;;16.40;;
57337;SDS011;43173;50.980;18.204;2024-03-07T11:32:18;31.20;;;16.60;;
57337;SDS011;43173;50.980;18.204;2024-03-07T11:34:46;27.90;;;16.10;;
57337;SDS011;43173;50.980;18.204;2024-03-07T11:37:19;26.60;;;15.40;;
57337;SDS011;43173;50.980;18.204;2024-03-07T11:39:49;27.70;;;16.30;;
57337;SDS011;43173;50.980;18.204;2024-03-07T11:42:25;27.00;;;15.90;;
57337;SDS011;43173;50.980;18.204;2024-03-07T11:44:51;29.60;;;15.80;;
57337;SDS011;43173;50.980;18.204;2024-03-07T11:47:17;29.10;;;16.20;;
57337;SDS011;43173;50.980;18.204;2024-03-07T11:49:44;26.70;;;16.50;;
57337;SDS011;43173;50.980;18.204;2024-03-07T11:52:17;29.10;;;16.20;;
57337;SDS011;43173;50.980;18.204;2024-03-07T11:57:11;28.90;;;15.80;;
57337;SDS011;43173;50.980;18.204;2024-03-07T11:59:41;26.50;;;16.60;;
57337;SDS011;43173;50.980;18.204;2024-03-07T12:02:13;29.00;;;16.40;;
57337;SDS011;43173;50.980;18.204;2024-03-07T12:04:46;26.40;;;15.70;;
57337;SDS011;43173;50.980;18.204;2024-03-07T12:07:13;28.00;;;16.20;;
57337;SDS011;43173;50.980;18.204;2024-03-07T12:21:16;27.90;;;17.00;;
57337;SDS011;43173;50.980;18.204;2024-03-07T12:23:44;26.00;;;16.00;;
57337;SDS011;43173;50.980;18.204;2024-03-07T12:26:09;26.70;;;15.30;;
57337;SDS011;43173;50.980;18.204;2024-03-07T12:28:40;29.50;;;16.20;;
57337;SDS011;43173;50.980;18.204;2024-03-07T12:31:08;25.80;;;15.10;;
57337;SDS011;43173;50.980;18.204;2024-03-07T12:33:41;25.40;;;14.80;;
57337;SDS011;43173;50.980;18.204;2024-03-07T12:36:12;27.50;;;14.30;;
57337;SDS011;43173;50.980;18.204;2024-03-07T12:38:38;28.40;;;16.40;;
57337;SDS011;43173;50.980;18.204;2024-03-07T12:41:09;31.90;;;16.90;;
57337;SDS011;43173;50.980;18.204;2024-03-07T12:43:39;30.70;;;17.40;;
57337;SDS011;43173;50.980;18.204;2024-03-07T12:46:07;36.30;;;18.60;;
57337;SDS011;43173;50.980;18.204;2024-03-07T12:48:37;26.40;;;15.80;;
57337;SDS011;43173;50.980;18.204;2024-03-07T12:51:16;26.20;;;14.80;;
57337;SDS011;43173;50.980;18.204;2024-03-07T12:53:44;24.70;;;15.20;;
57337;SDS011;43173;50.980;18.204;2024-03-07T12:56:11;22.10;;;13.20;;
57337;SDS011;43173;50.980;18.204;2024-03-07T12:58:41;25.90;;;15.20;;
57337;SDS011;43173;50.980;18.204;2024-03-07T13:01:08;25.30;;;14.80;;
57337;SDS011;43173;50.980;18.204;2024-03-07T13:03:33;28.30;;;14.70;;
57337;SDS011;43173;50.980;18.204;2024-03-07T13:06:00;26.80;;;14.70;;
57337;SDS011;43173;50.980;18.204;2024-03-07T13:08:26;23.90;;;14.60;;
57337;SDS011;43173;50.980;18.204;2024-03-07T13:10:54;25.40;;;13.90;;
57337;SDS011;43173;50.980;18.204;2024-03-07T13:13:20;24.50;;;14.70;;
57337;SDS011;43173;50.980;18.204;2024-03-07T13:15:46;31.60;;;17.30;;
57337;SDS011;43173;50.980;18.204;2024-03-07T13:18:12;27.80;;;14.50;;
57337;SDS011;43173;50.980;18.204;2024-03-07T13:20:39;26.80;;;14.50;;
57337;SDS011;43173;50.980;18.204;2024-03-07T13:23:04;22.70;;;14.00;;
57337;SDS011;43173;50.980;18.204;2024-03-07T13:25:31;23.20;;;12.00;;
57337;SDS011;43173;50.980;18.204;2024-03-07T13:28:02;22.20;;;13.50;;
57337;SDS011;43173;50.980;18.204;2024-03-07T13:30:32;23.70;;;13.30;;
57337;SDS011;43173;50.980;18.204;2024-03-07T13:33:01;20.50;;;14.20;;
57337;SDS011;43173;50.980;18.204;2024-03-07T13:35:28;20.50;;;13.10;;
57337;SDS011;43173;50.980;18.204;2024-03-07T13:37:54;19.90;;;13.60;;
57337;SDS011;43173;50.980;18.204;2024-03-07T13:40:21;20.10;;;12.90;;
57337;SDS011;43173;50.980;18.204;2024-03-07T13:42:51;18.90;;;12.50;;
57337;SDS011;43173;50.980;18.204;2024-03-07T13:45:20;20.00;;;13.20;;
57337;SDS011;43173;50.980;18.204;2024-03-07T13:47:47;22.60;;;14.00;;
57337;SDS011;43173;50.980;18.204;2024-03-07T13:50:17;22.10;;;13.80;;
57337;SDS011;43173;50.980;18.204;2024-03-07T13:52:47;25.20;;;14.90;;
57337;SDS011;43173;50.980;18.204;2024-03-07T13:55:29;21.70;;;15.00;;
57337;SDS011;43173;50.980;18.204;2024-03-07T13:58:13;25.00;;;14.00;;
57337;SDS011;43173;50.980;18.204;2024-03-07T14:06:26;27.20;;;16.70;;
57337;SDS011;43173;50.980;18.204;2024-03-07T14:09:13;37.50;;;22.20;;
57337;SDS011;43173;50.980;18.204;2024-03-07T14:31:48;23.70;;;13.90;;
57337;SDS011;43173;50.980;18.204;2024-03-07T14:37:09;27.20;;;12.90;;
57337;SDS011;43173;50.980;18.204;2024-03-07T14:39:43;25.50;;;13.30;;
57337;SDS011;43173;50.980;18.204;2024-03-07T14:42:09;24.50;;;13.10;;
57337;SDS011;43173;50.980;18.204;2024-03-07T14:44:36;23.20;;;12.60;;
57337;SDS011;43173;50.980;18.204;2024-03-07T14:47:05;22.70;;;12.50;;
57337;SDS011;43173;50.980;18.204;2024-03-07T14:49:32;24.30;;;13.00;;
57337;SDS011;43173;50.980;18.204;2024-03-07T14:51:58;29.10;;;15.70;;
57337;SDS011;43173;50.980;18.204;2024-03-07T14:54:23;26.00;;;13.90;;
57337;SDS011;43173;50.980;18.204;2024-03-07T14:56:49;28.70;;;14.90;;
57337;SDS011;43173;50.980;18.204;2024-03-07T14:59:15;25.70;;;14.00;;
57337;SDS011;43173;50.980;18.204;2024-03-07T15:01:41;25.60;;;13.30;;
57337;SDS011;43173;50.980;18.204;2024-03-07T15:04:06;22.80;;;12.60;;
57337;SDS011;43173;50.980;18.204;2024-03-07T15:06:33;19.10;;;12.10;;
57337;SDS011;43173;50.980;18.204;2024-03-07T15:09:00;24.30;;;12.80;;
57337;SDS011;43173;50.980;18.204;2024-03-07T15:11:28;19.40;;;11.80;;
57337;SDS011;43173;50.980;18.204;2024-03-07T15:13:57;26.60;;;13.50;;
57337;SDS011;43173;50.980;18.204;2024-03-07T15:16:25;23.70;;;12.60;;
57337;SDS011;43173;50.980;18.204;2024-03-07T15:18:51;22.80;;;12.90;;
57337;SDS011;43173;50.980;18.204;2024-03-07T15:21:17;22.50;;;12.00;;
57337;SDS011;43173;50.980;18.204;2024-03-07T15:23:42;23.30;;;12.80;;
57337;SDS011;43173;50.980;18.204;2024-03-07T15:26:08;24.80;;;12.60;;
57337;SDS011;43173;50.980;18.204;2024-03-07T15:28:33;20.40;;;11.50;;